Aérodrome :
LOGIN :

S'inscrire | Disclaimer

   EN    FR    IT 

 










Légende :    VFR   VFR Marginal   IFR   IFR Intensif   IFR Très Intensif
Visi : 
Plafond : 
>= 8 km
>= 3000ft
5 à 8 km
1000 à 3000 ft
1500m à 5 km
500 à 1000 ft
800 à 1500m
200 à 500 ft
< 800m
< 200 ft
Symboles :   Orages  Brouillard  Fortes neiges  Fortes précipitations  Vent > 20 kt
SIGMETs :   Divers  Orages  Givrage  Turbulence  Onde Orograph.  Cendres Volcan.







- Altitude de l'aérodrome : 296 ft
- Code IATA : GKE


ETNG - Geilenkirchen

DERNIER METAR :
  • 240650Z 14003KT CAVOK 18/09 Q0999 NOSIG

METARs EXPIRÉS :
  • 240550Z 17004KT CAVOK 17/09 Q0998 TEMPO -SHRA
  • 240502Z 17002KT CAVOK 16/09 Q0998 NOSIG
  • 240450Z 16003KT CAVOK 16/09 Q0998

TAF TAF ETNG
Valide du 24 à 06h jusqu'au 24 à 21h UTC


240500Z 2406/2421 17008KT CAVOK
PROB30
TEMPO 2406/2408 18017G27KT -RA -SHRA
BECMG 2408/2410 19013G23KT
TEMPO 2411/2418 20015G28KT
TEMPO 2416/2421 20018G33KT 6000 RA SHRA
PROB30
TEMPO 2416/2418 21020G45KT 2000 TSRAGR SCT040 SCT060CB
BECMG 2418/2420 16007KT
Pas de NOTAMs connus pour ce terrain.



MET'MAP, la Météo Aéronautique d'un coup d'oeil ! - Copyright ORBIFLY Décembre 2007 - Disclaimer

ORBIFLY MET'MAP TEAM :

Programmation & Développement : Alexandra Zaïnal
Conception & Développement : Baudouin d'Aumeries
Co-Programmation & Développement : Marc-Olivier Méhu
Soutien technique & logistique : Manuel Goepfert

Contact : metmap@orbifly.com




SOURCES & CREDITS :

   NOAA